You are listening to:
CYYZ Tower - Toronto, Ontario, Canada

CYYZ 312100Z 16011KT 15SM FEW065 FEW100 29/11 A3009 RMK CU1AC1 CU TR AC TR SLP189 DENSITY ALT 2200FT

If stream doesn't start automatically press the play button
If stream stops then reload player then press play